LBSF/SOF METAR and TAF weather

Enter ICAO airport designator
Station Type Date Time Source
LBSF METAR 2022/01/25 03:30 UTC NOAA

LBSF 250330Z 11004KT 8000 NSC M18/M19 Q1030 NOSIG


Station Type Date Time Source
LBSF Decoded METAR 2022/01/25 03:30 UTC NOAA

Sofia Observ. , Bulgaria (LBSF) 42-39N 023-23E 595M
Jan 24, 2022 - 10:30 PM EST / 2022.01.25 0330 UTC
Wind: from the ESE (110 degrees) at 5 MPH (4 KT):0
Visibility: 4 mile(s):0
Temperature: 0 F (-18 C)
Windchill: -11 F (-24 C):2
Dew Point: -2 F (-19 C)
Relative Humidity: 91%
Pressure (altimeter): 30.42 in. Hg (1030 hPa)
ob: LBSF 250330Z 11004KT 8000 NSC M18/M19 Q1030 NOSIG
cycle: 3

Station Type Date Time Source
LBSF TAF 2022/01/24 18:18 UTC NOAA

TAF LBSF 241700Z 2418/2518 VRB04KT 9999 SCT015 BKN040
BECMG 2500/2502 28010KT

Example: see airport list